KBJI/BJI METAR and TAF weather

Enter ICAO airport designator
Station Type Date Time Source
KBJI METAR 2018/07/21 13:15 UTC NOAA

KBJI 211315Z AUTO 36003KT 10SM SCT007 OVC028 18/16 A3011 RMK AO2 T01800163


Station Type Date Time Source
KBJI Decoded METAR 2018/07/21 13:15 UTC NOAA

Bemidji, MN, United States (KBJI) 47-30N 094-56W 420M
Jul 21, 2018 - 09:15 AM EDT / 2018.07.21 1315 UTC
Wind: from the N (360 degrees) at 3 MPH (3 KT):0
Visibility: 10 mile(s):0
Sky conditions: overcast
Temperature: 64.4 F (18.0 C)
Dew Point: 61.3 F (16.3 C)
Relative Humidity: 89%
Pressure (altimeter): 30.11 in. Hg (1019 hPa)
ob: KBJI 211315Z AUTO 36003KT 10SM SCT007 OVC028 18/16 A3011 RMK AO2 T01800163
cycle: 13

Station Type Date Time Source
KBJI TAF 2018/07/21 12:39 UTC NOAA

TAF KBJI 211136Z 2112/2212 01005KT P6SM BKN025
FM212000 03006KT P6SM BKN040
FM212100 03006KT P6SM SCT045
FM220100 04005KT P6SM SCT140


Example: see airport list